Flight Track Log - Related Links

Times and Time Zones

All times are in EDT time to prevent confusion due to time zone crossing. See the EJA396 flight status page for this flight to view local times or setup timezone preferences in your user account.

Time Position Orientation Groundspeed Altitude Reporting Facility
EDT Latitude Longitude Course Direction KTS MPH feet Rate Location/Type
Thu 10:11:03 AM 40.8833 -74.0500 339° North 182 209 1,600  Level New York TRACON
Thu 10:12:03 AM 40.9167 -74.0667 339° North 211 243 3,400 1,900 Climbing New York TRACON
Thu 10:13:03 AM 40.9667 -74.1167 323° Northwest 258 297 5,400 1,300 Climbing New York TRACON
Thu 10:14:03 AM 41.0333 -74.1833 323° Northwest 256 295 6,000 300 Climbing New York TRACON
Thu 10:15:03 AM 41.0833 -74.2167 333° Northwest 274 315 6,000  Level New York TRACON
Thu 10:15:57 AM 41.1333 -74.1500 45° Northeast 269 310 6,000 789 Level New York TRACON
Thu 10:16:57 AM 41.1500 -74.0667 75° East 267 307 7,500 2,500 Climbing New York TRACON
Thu 10:17:57 AM 41.1833 -73.9667 66° East 290 334 11,000 1,193 Climbing New York TRACON
Thu 10:19:53 AM 41.2383 -73.7375 72° East 362 417 11,000 379 Level Boston Center
Thu 10:20:51 AM 41.2686 -73.6275 70° East 357 411 12,100 1,361 Climbing Boston Center
Thu 10:21:52 AM 41.2806 -73.4897 83° East 346 398 13,700 1,426 Climbing Boston Center
Thu 10:22:53 AM 41.2817 -73.3683 89° East 354 407 15,000 645 Climbing Boston Center
Thu 10:23:53 AM 41.2869 -73.2300 87° East 360 414 15,000  Level Boston Center
Thu 10:24:54 AM 41.2919 -73.0811 87° East 366 421 15,000  Level Boston Center
Thu 10:25:54 AM 41.2989 -72.9431 86° East 361 415 15,000  Level Boston Center
Thu 10:26:51 AM 41.3056 -72.8075 86° East 367 422 15,000  Level Boston Center
Thu 10:27:52 AM 41.3103 -72.6722 87° East 367 422 15,000  Level Boston Center
Thu 10:28:52 AM 41.3144 -72.5342 88° East 367 422 15,000  Level Boston Center
Thu 10:29:53 AM 41.3189 -72.3958 88° East 367 422 15,000  Level Boston Center
Thu 10:30:53 AM 41.3250 -72.2522 87° East 367 422 15,000  Level Boston Center
Thu 10:31:54 AM 41.3289 -72.1278 88° East 372 428 15,000  Level Boston Center
Thu 10:32:54 AM 41.3344 -71.9756 87° East 367 422 15,000  Level Boston Center
Thu 10:33:52 AM 41.3403 -71.8567 86° East 367 422 15,000  Level Boston Center
Thu 10:34:53 AM 41.3475 -71.6992 86° East 367 422 15,000  Level Boston Center
Thu 10:35:53 AM 41.3531 -71.5719 87° East 373 429 15,000  Level Boston Center
Thu 10:36:54 AM 41.3536 -71.4197 90° East 373 429 15,000  Level Boston Center
Thu 10:37:51 AM 41.3111 -71.3042 116° Southeast 378 435 15,000  Level Boston Center
Thu 10:38:52 AM 41.2533 -71.1644 119° Southeast 383 441 15,000 -446 Level Boston Center
Thu 10:39:52 AM 41.2061 -71.0550 120° Southeast 391 450 14,100 -1,289 Descending Boston Center
Thu 10:40:53 AM 41.1564 -70.9211 116° Southeast 376 433 12,400 -1,664 Descending Boston Center
Thu 10:41:51 AM 41.1589 -70.8025 88° East 339 390 10,800 -1,563 Descending Boston Center
Thu 10:42:52 AM 41.1636 -70.6919 87° East 306 352 9,300 -1,475 Descending Boston Center
Thu 10:43:53 AM 41.1681 -70.5900 87° East 294 338 7,800 -1,426 Descending Boston Center
Thu 10:44:54 AM 41.1747 -70.4850 85° East 283 326 6,400 -1,412 Descending Boston Center
Thu 10:45:52 AM 41.1772 -70.3883 88° East 269 310 5,000 -1,220 Descending Boston Center
Thu 10:46:52 AM 41.1819 -70.3053 86° East 264 304 4,000 -800 Descending Boston Center
Thu 10:47:52 AM 41.1675 -70.2122 102° East 253 291 3,400 -1,091 Descending Boston Center
Thu 10:48:53 AM 41.1872 -70.1508 67° East 235 270 1,800 -1,388 Descending Boston Center
Thu 10:49:53 AM 41.2258 -70.1081 40° Northeast 173 199 600 -645 Descending Boston Center
Thu 10:50:54 AM 41.2475 -70.0436 66° East 173 199 500 5,244 Descending Boston Center
Thu 10:51:52 AM 41.2711 -69.9875 61° Northeast 173 199 11,000 10,862 Climbing Boston Center

Login

Don't have an account? Register now (free) for customized features, flight alerts, and more!